Time;durP1;ratioP1;P1;durP2;ratioP2;P2;SDS_P1;SDS_P2;PMS_P1;PMS_P2;Temp;Humidity;BMP_temperature;BMP_pressure;BME280_temperature;BME280_humidity;BME280_pressure;Samples;Min_cycle;Max_cycle;Signal;HPM_P1;HPM_P2
2023/04/19 00:02:00;;;;;;;23.90;21.60;;;11.00;99.90;;;;;;2612438;54;20129;-74
2023/04/19 00:07:48;;;;;;;25.83;21.37;;;11.00;99.90;;;;;;2612890;54;20439;-75
2023/04/19 00:13:36;;;;;;;22.97;20.70;;;11.10;99.90;;;;;;2611004;46;20154;-74
2023/04/19 00:19:23;;;;;;;23.40;21.20;;;11.20;99.90;;;;;;2612773;39;20514;-74
2023/04/19 00:25:11;;;;;;;23.03;20.80;;;11.20;99.90;;;;;;2612945;54;20221;-75
2023/04/19 00:30:59;;;;;;;22.60;20.20;;;11.20;99.90;;;;;;2612607;54;20149;-74
2023/04/19 00:40:53;;;;;;;23.07;20.73;;;11.20;99.90;;;;;;2613141;54;20910;-74
2023/04/19 00:46:42;;;;;;;21.70;19.67;;;11.20;99.90;;;;;;2610952;54;20435;-74
2023/04/19 00:52:31;;;;;;;22.60;20.30;;;11.30;99.90;;;;;;2611050;54;20394;-74
2023/04/19 00:58:19;;;;;;;23.90;21.50;;;11.20;99.90;;;;;;2611576;54;20362;-75
2023/04/19 01:04:07;;;;;;;23.00;20.40;;;11.20;99.90;;;;;;2610566;54;20150;-69
2023/04/19 01:09:55;;;;;;;21.40;19.30;;;11.10;99.90;;;;;;2609946;54;20406;-69
2023/04/19 01:15:43;;;;;;;22.73;20.33;;;11.00;99.90;;;;;;2612508;54;20127;-70
2023/04/19 01:21:31;;;;;;;22.37;20.17;;;11.00;99.90;;;;;;2611496;54;20126;-70
2023/04/19 01:27:18;;;;;;;24.47;21.27;;;10.90;99.90;;;;;;2611386;46;20423;-69
2023/04/19 01:33:06;;;;;;;24.53;20.70;;;10.90;99.90;;;;;;2612048;54;20154;-69
2023/04/19 01:36:23;;;;;;;22.93;20.60;;;10.90;99.90;;;;;;2612111;39;20845;-69
2023/04/19 01:38:49;;;;;;;23.70;21.20;;;10.90;99.90;;;;;;2611719;54;20761;-69
2023/04/19 01:44:36;;;;;;;23.10;20.80;;;10.80;99.90;;;;;;2611718;54;20390;-70
2023/04/19 01:50:24;;;;;;;24.17;21.73;;;10.80;99.90;;;;;;2611029;54;20738;-70
2023/04/19 01:56:12;;;;;;;22.40;20.10;;;10.80;99.90;;;;;;2613100;54;20146;-69
2023/04/19 02:02:00;;;;;;;24.13;21.60;;;10.80;99.90;;;;;;2611544;54;20163;-70
2023/04/19 02:07:47;;;;;;;22.77;20.43;;;10.80;99.90;;;;;;2612675;39;20553;-75
2023/04/19 02:13:35;;;;;;;21.60;19.43;;;10.80;99.90;;;;;;2610820;54;20131;-75
2023/04/19 02:19:23;;;;;;;22.00;19.70;;;10.80;99.90;;;;;;2612925;54;20127;-75
2023/04/19 02:25:11;;;;;;;19.63;17.67;;;10.80;99.90;;;;;;2610429;39;20562;-75
2023/04/19 02:31:03;;;;;;;20.67;17.90;;;10.80;99.90;;;;;;2610268;54;20689;-75
2023/04/19 02:40:53;;;;;;;18.90;17.10;;;10.80;99.90;;;;;;2612714;54;20544;-75
2023/04/19 02:53:12;;;;;;;16.97;15.07;;;10.90;99.90;;;;;;2611424;54;20362;-69
2023/04/19 02:59:01;;;;;;;16.27;14.73;;;10.90;99.90;;;;;;2610724;54;20150;-69
2023/04/19 03:04:49;;;;;;;14.93;13.83;;;10.90;99.90;;;;;;2611157;54;20371;-69
2023/04/19 03:10:37;;;;;;;16.20;14.10;;;10.80;99.90;;;;;;2610896;54;20122;-70
2023/04/19 03:16:25;;;;;;;14.73;13.43;;;10.80;99.90;;;;;;2611866;54;20145;-70
2023/04/19 03:22:12;;;;;;;16.43;15.00;;;10.80;99.90;;;;;;2613375;54;20411;-69
2023/04/19 03:28:00;;;;;;;16.23;14.83;;;10.70;99.90;;;;;;2611896;54;20131;-69
2023/04/19 03:33:48;;;;;;;15.63;14.30;;;10.70;99.90;;;;;;2611756;54;20151;-70
2023/04/19 03:36:23;;;;;;;15.20;13.90;;;10.70;99.90;;;;;;2612415;47;20431;-70
2023/04/19 03:38:49;;;;;;;13.87;12.83;;;10.70;99.90;;;;;;2611680;54;20158;-69
2023/04/19 03:44:37;;;;;;;14.80;13.70;;;10.70;99.90;;;;;;2612766;54;20131;-69
2023/04/19 03:50:24;;;;;;;14.37;13.27;;;10.60;99.90;;;;;;2613358;46;20146;-69
2023/04/19 03:56:12;;;;;;;13.30;12.30;;;10.60;99.90;;;;;;2613151;54;20147;-69
2023/04/19 04:02:00;;;;;;;12.30;11.60;;;10.50;96.40;;;;;;2613851;54;20119;-68
2023/04/19 04:07:48;;;;;;;13.17;12.27;;;10.40;91.70;;;;;;2612134;54;20134;-70
2023/04/19 04:13:36;;;;;;;12.53;11.70;;;10.10;85.20;;;;;;2611930;54;20251;-69
2023/04/19 04:19:24;;;;;;;14.17;13.07;;;9.90;88.40;;;;;;2611711;54;21381;-69
2023/04/19 04:25:14;;;;;;;13.40;12.30;;;9.90;88.80;;;;;;2612778;54;20371;-68
2023/04/19 04:31:02;;;;;;;13.97;12.87;;;9.70;89.30;;;;;;2611892;54;21976;-69
2023/04/19 04:40:52;;;;;;;15.23;14.13;;;9.60;86.70;;;;;;2611381;54;20483;-69
2023/04/19 04:46:40;;;;;;;15.23;14.10;;;9.50;76.40;;;;;;2610178;54;20363;-69
2023/04/19 04:52:28;;;;;;;16.17;15.07;;;9.40;79.50;;;;;;2610056;54;20138;-69
2023/04/19 04:58:15;;;;;;;15.40;14.20;;;9.30;87.70;;;;;;2613572;54;20387;-69
2023/04/19 05:04:03;;;;;;;15.80;14.60;;;9.30;90.90;;;;;;2611100;54;20138;-70
2023/04/19 05:09:51;;;;;;;15.40;14.10;;;9.20;98.90;;;;;;2612133;54;20126;-70
2023/04/19 05:15:39;;;;;;;16.53;15.03;;;9.20;99.90;;;;;;2611660;54;20119;-70
2023/04/19 05:21:26;;;;;;;14.57;13.37;;;9.30;99.90;;;;;;2611437;54;20628;-68
2023/04/19 05:27:14;;;;;;;17.17;15.07;;;9.40;99.90;;;;;;2612615;54;20166;-68
2023/04/19 05:33:02;;;;;;;14.97;13.67;;;9.80;98.70;;;;;;2610071;54;20238;-70
2023/04/19 05:36:23;;;;;;;16.33;14.93;;;9.90;91.70;;;;;;2613040;54;20400;-70
2023/04/19 05:38:48;;;;;;;16.13;14.90;;;9.90;91.20;;;;;;2609052;54;20258;-69
2023/04/19 05:41:51;;;;;;;17.67;15.43;;;9.90;83.60;;;;;;2610266;54;20412;-71
2023/04/19 05:44:17;;;;;;;17.70;16.13;;;9.70;74.60;;;;;;2609729;54;20162;-69
2023/04/19 05:50:06;;;;;;;17.37;15.40;;;9.60;58.40;;;;;;2610097;54;20133;-68
2023/04/19 05:55:53;;;;;;;17.30;15.70;;;9.50;51.50;;;;;;2614630;39;20732;-68
2023/04/19 06:01:41;;;;;;;17.93;16.53;;;9.60;36.40;;;;;;2613945;54;21001;-68
2023/04/19 06:07:30;;;;;;;17.20;15.87;;;9.80;27.70;;;;;;2612355;39;20536;-68
2023/04/19 06:13:17;;;;;;;18.90;17.37;;;11.00;14.80;;;;;;2611159;54;20398;-69
2023/04/19 06:19:06;;;;;;;17.87;16.40;;;11.60;5.60;;;;;;2608443;54;20511;-69
2023/04/19 06:24:54;;;;;;;17.77;16.43;;;11.70;1.00;;;;;;2610969;54;20522;-69
2023/04/19 06:30:41;;;;;;;17.30;16.20;;;11.70;1.00;;;;;;2611817;46;20138;-68
2023/04/19 06:43:14;;;;;;;18.00;17.00;;;11.60;1.00;;;;;;2613073;54;20415;-69
2023/04/19 06:49:02;;;;;;;17.13;16.03;;;12.10;1.00;;;;;;2613088;54;20371;-68
2023/04/19 06:54:50;;;;;;;19.00;17.90;;;12.10;1.00;;;;;;2610772;54;20158;-68
2023/04/19 07:00:38;;;;;;;17.77;16.57;;;12.20;1.00;;;;;;2611448;54;20367;-69
2023/04/19 07:06:28;;;;;;;18.33;16.90;;;11.80;1.00;;;;;;2612849;54;20151;-68
2023/04/19 07:12:16;;;;;;;18.17;16.97;;;12.10;1.00;;;;;;2612317;54;20411;-69
2023/04/19 07:18:04;;;;;;;18.13;16.83;;;11.90;1.00;;;;;;2611663;54;20127;-69
2023/04/19 07:23:52;;;;;;;18.70;17.23;;;12.50;1.00;;;;;;2612020;54;20126;-68
2023/04/19 07:29:40;;;;;;;19.67;18.20;;;12.30;1.00;;;;;;2613517;54;20374;-69
2023/04/19 07:35:28;;;;;;;16.73;15.73;;;11.80;1.00;;;;;;2613673;54;20258;-68
2023/04/19 07:41:16;;;;;;;17.60;15.93;;;12.00;1.00;;;;;;2613369;54;20126;-69
2023/04/19 07:47:05;;;;;;;17.60;16.50;;;12.40;1.00;;;;;;2610966;54;20398;-69
2023/04/19 07:52:53;;;;;;;16.63;15.47;;;12.70;1.00;;;;;;2611888;54;20354;-69
2023/04/19 07:58:41;;;;;;;19.00;17.60;;;12.70;1.00;;;;;;2611710;54;20143;-68
2023/04/19 08:04:28;;;;;;;18.30;17.10;;;12.80;1.00;;;;;;2612985;46;20597;-69
2023/04/19 08:10:17;;;;;;;16.03;15.13;;;13.20;1.00;;;;;;2613211;54;20722;-68
2023/04/19 08:16:05;;;;;;;19.10;17.90;;;13.10;1.00;;;;;;2612561;54;20451;-68
2023/04/19 08:21:53;;;;;;;18.37;16.70;;;13.40;1.00;;;;;;2613484;46;20170;-69
2023/04/19 08:25:14;;;;;;;17.33;16.30;;;13.50;1.00;;;;;;2612270;54;20408;-69
2023/04/19 08:27:39;;;;;;;17.53;16.57;;;13.50;1.00;;;;;;2613100;54;20727;-68
2023/04/19 08:33:27;;;;;;;17.57;16.27;;;13.20;1.00;;;;;;2613314;54;20130;-68
2023/04/19 08:36:23;;;;;;;16.87;15.77;;;13.50;1.00;;;;;;2613585;54;20439;-69
2023/04/19 08:38:48;;;;;;;16.00;15.00;;;13.50;1.00;;;;;;2613385;54;21039;-68
2023/04/19 08:44:39;;;;;;;18.03;16.93;;;13.00;1.00;;;;;;2613722;54;20138;-67
2023/04/19 08:50:28;;;;;;;17.27;16.20;;;13.50;1.00;;;;;;2613435;39;21242;-68
2023/04/19 08:56:16;;;;;;;16.93;15.73;;;13.00;1.00;;;;;;2614038;31;20849;-68
2023/04/19 09:02:04;;;;;;;17.20;16.20;;;14.40;1.00;;;;;;2613120;54;20399;-68
2023/04/19 09:07:52;;;;;;;17.97;16.60;;;14.30;1.00;;;;;;2613445;54;20429;-68
2023/04/19 09:13:42;;;;;;;16.00;15.10;;;13.90;1.00;;;;;;2613624;54;20818;-69
2023/04/19 09:26:12;;;;;;;16.37;15.67;;;13.70;1.00;;;;;;2613966;54;20480;-68
2023/04/19 09:32:00;;;;;;;16.57;15.53;;;13.80;1.00;;;;;;2613451;54;20394;-69
2023/04/19 09:41:10;;;;;;;16.27;15.40;;;15.00;1.00;;;;;;2613854;54;20391;-67
2023/04/19 09:46:58;;;;;;;16.40;15.50;;;14.00;1.00;;;;;;2614475;39;20687;-69
2023/04/19 09:52:47;;;;;;;16.27;15.37;;;14.30;1.00;;;;;;2613653;54;20150;-69
2023/04/19 09:58:35;;;;;;;16.73;15.83;;;13.80;1.00;;;;;;2613455;54;20415;-69
2023/04/19 10:04:24;;;;;;;17.03;16.03;;;15.20;1.00;;;;;;2612101;54;20138;-67
2023/04/19 10:10:14;;;;;;;18.00;17.10;;;14.20;1.00;;;;;;2612014;54;20973;-68
2023/04/19 10:16:02;;;;;;;16.70;15.60;;;14.90;1.00;;;;;;2613243;46;20426;-68
2023/04/19 10:21:50;;;;;;;17.10;16.10;;;14.90;1.00;;;;;;2612263;54;20362;-68
2023/04/19 10:27:47;;;;;;;18.13;17.00;;;15.50;1.00;;;;;;2611601;31;20895;-68
2023/04/19 10:33:36;;;;;;;17.20;16.10;;;15.10;1.00;;;;;;2612756;54;20403;-68
2023/04/19 10:36:38;;;;;;;17.60;16.67;;;15.20;1.00;;;;;;2612065;54;20388;-68
2023/04/19 10:45:36;;;;;;;16.10;14.83;;;15.60;1.00;;;;;;2612203;54;20419;-68
2023/04/19 10:51:28;;;;;;;15.50;14.60;;;15.90;1.00;;;;;;2611359;54;20451;-68
2023/04/19 10:57:15;;;;;;;16.10;15.10;;;15.70;1.00;;;;;;2613450;54;20362;-68
2023/04/19 11:03:41;;;;;;;16.13;15.33;;;16.00;1.00;;;;;;2613563;54;20235;-69
2023/04/19 11:09:37;;;;;;;17.07;16.17;;;15.80;1.00;;;;;;2614127;46;20398;-68
2023/04/19 11:15:25;;;;;;;17.47;16.37;;;15.80;1.00;;;;;;2614832;54;20500;-68
2023/04/19 11:21:13;;;;;;;18.20;16.93;;;16.60;1.00;;;;;;2614362;54;20138;-68
2023/04/19 11:27:08;;;;;;;17.50;16.60;;;16.10;1.00;;;;;;2613415;54;20427;-68
2023/04/19 11:32:56;;;;;;;17.53;16.53;;;16.20;1.00;;;;;;2614982;31;20884;-68
2023/04/19 11:38:48;;;;;;;17.30;16.20;;;15.80;1.00;;;;;;2612749;54;20450;-68
2023/04/19 11:42:09;;;;;;;17.40;16.50;;;16.20;1.00;;;;;;2614151;54;20412;-69
2023/04/19 11:47:57;;;;;;;16.97;16.03;;;16.70;1.00;;;;;;2614064;54;20367;-69
2023/04/19 11:53:45;;;;;;;23.87;16.83;;;16.30;1.00;;;;;;2611178;54;21082;-68
2023/04/19 11:59:35;;;;;;;18.80;17.60;;;17.20;1.00;;;;;;2613580;54;20493;-68
2023/04/19 12:05:23;;;;;;;17.33;16.43;;;16.30;1.00;;;;;;2614037;54;20532;-69
2023/04/19 12:11:10;;;;;;;16.77;15.87;;;16.60;1.00;;;;;;2613920;54;21016;-69
2023/04/19 12:17:14;;;;;;;16.77;15.87;;;16.20;1.00;;;;;;2613656;54;20122;-68
2023/04/19 12:23:03;;;;;;;17.90;16.70;;;16.40;1.00;;;;;;2614212;54;20418;-68
2023/04/19 12:28:50;;;;;;;18.53;17.30;;;17.00;1.00;;;;;;2613049;54;20367;-69
2023/04/19 12:34:38;;;;;;;19.73;18.63;;;16.50;1.00;;;;;;2612960;54;20122;-69
2023/04/19 12:37:38;;;;;;;19.00;17.67;;;17.00;1.00;;;;;;2612789;39;20814;-69
2023/04/19 12:40:04;;;;;;;18.77;17.77;;;16.50;1.00;;;;;;2613007;54;20677;-69
2023/04/19 12:45:51;;;;;;;18.83;17.83;;;16.10;1.00;;;;;;2612790;54;20379;-69
2023/04/19 12:51:41;;;;;;;20.20;18.47;;;15.80;1.00;;;;;;2613735;54;20154;-68
2023/04/19 12:57:29;;;;;;;19.73;18.53;;;15.90;1.00;;;;;;2613565;54;20459;-67
2023/04/19 13:03:16;;;;;;;18.13;17.23;;;15.80;1.00;;;;;;2612111;54;20157;-68
2023/04/19 13:09:04;;;;;;;18.80;17.80;;;16.90;1.00;;;;;;2613406;54;20251;-69
2023/04/19 13:14:51;;;;;;;18.83;17.43;;;17.10;1.00;;;;;;2613629;54;20122;-69
2023/04/19 13:20:39;;;;;;;18.07;16.40;;;17.40;1.00;;;;;;2613697;46;20153;-70
2023/04/19 13:26:27;;;;;;;18.53;17.40;;;18.10;1.00;;;;;;2610923;54;20146;-68
2023/04/19 13:32:15;;;;;;;18.87;17.47;;;16.50;1.00;;;;;;2613908;54;20419;-68
2023/04/19 13:42:08;;;;;;;18.17;16.80;;;17.20;1.00;;;;;;2613632;54;21001;-68
2023/04/19 13:47:56;;;;;;;17.23;16.43;;;17.20;1.00;;;;;;2613904;54;20388;-69
2023/04/19 13:53:44;;;;;;;17.50;16.57;;;17.30;1.00;;;;;;2613522;54;20190;-69
2023/04/19 13:59:32;;;;;;;17.70;16.80;;;17.90;1.00;;;;;;2612901;54;20125;-68
2023/04/19 14:05:19;;;;;;;17.90;16.90;;;17.30;1.00;;;;;;2612799;54;20134;-69
2023/04/19 14:11:07;;;;;;;16.83;15.97;;;16.90;1.00;;;;;;2612125;54;20122;-69
2023/04/19 14:16:55;;;;;;;17.50;16.60;;;17.10;1.00;;;;;;2613051;54;20142;-68
2023/04/19 14:22:44;;;;;;;18.00;16.77;;;17.10;1.00;;;;;;2612685;54;20130;-68
2023/04/19 14:28:32;;;;;;;16.50;15.60;;;16.90;1.00;;;;;;2613669;54;20371;-68
2023/04/19 14:34:19;;;;;;;16.93;16.00;;;16.80;1.00;;;;;;2613084;54;20158;-68
2023/04/19 14:40:09;;;;;;;16.70;16.00;;;17.50;1.00;;;;;;2613391;54;20143;-68
2023/04/19 14:43:26;;;;;;;17.60;16.50;;;16.80;1.00;;;;;;2612912;54;20403;-68
2023/04/19 14:45:52;;;;;;;16.87;15.93;;;16.30;1.00;;;;;;2613192;54;20403;-69
2023/04/19 14:51:40;;;;;;;17.83;16.73;;;16.60;1.00;;;;;;2610923;54;20267;-69
2023/04/19 14:57:28;;;;;;;18.37;17.00;;;16.60;1.00;;;;;;2612166;54;20126;-69
2023/04/19 15:03:16;;;;;;;17.20;16.10;;;16.50;1.00;;;;;;2611847;54;20236;-68
2023/04/19 15:09:04;;;;;;;18.50;17.47;;;16.60;1.00;;;;;;2610851;54;20370;-69
2023/04/19 15:14:51;;;;;;;18.50;17.40;;;16.60;1.00;;;;;;2613096;54;20235;-69
2023/04/19 15:20:41;;;;;;;18.33;17.33;;;16.70;1.00;;;;;;2611937;54;20644;-68
2023/04/19 15:26:28;;;;;;;19.40;18.10;;;16.80;1.00;;;;;;2612776;54;20414;-69
2023/04/19 15:32:16;;;;;;;16.97;15.97;;;16.60;1.00;;;;;;2613446;54;20146;-70
2023/04/19 15:38:03;;;;;;;16.33;15.33;;;16.90;1.00;;;;;;2612115;54;20111;-69
2023/04/19 15:47:13;;;;;;;16.27;15.47;;;15.80;1.00;;;;;;2611680;54;20470;-69
2023/04/19 15:53:01;;;;;;;17.17;16.17;;;16.60;1.00;;;;;;2610283;54;20126;-69
2023/04/19 15:58:49;;;;;;;17.47;16.33;;;16.00;1.00;;;;;;2609936;54;20684;-69
2023/04/19 16:04:37;;;;;;;16.23;15.27;;;16.20;1.00;;;;;;2614124;54;20141;-69
2023/04/19 16:10:24;;;;;;;16.13;15.43;;;15.80;1.00;;;;;;2611617;54;20395;-68
2023/04/19 16:16:12;;;;;;;15.67;14.80;;;16.00;1.00;;;;;;2613388;54;20125;-71
2023/04/19 16:22:04;;;;;;;15.87;14.90;;;15.60;1.00;;;;;;2613789;54;20148;-69
2023/04/19 16:27:52;;;;;;;15.57;14.70;;;15.70;1.00;;;;;;2613236;31;20810;-69
2023/04/19 16:33:39;;;;;;;16.50;15.60;;;15.80;1.00;;;;;;2614100;39;20240;-69
2023/04/19 16:39:27;;;;;;;16.60;15.60;;;14.20;1.00;;;;;;2613329;54;20130;-69
2023/04/19 16:42:38;;;;;;;18.37;17.40;;;14.00;1.00;;;;;;2612471;54;20400;-69
2023/04/19 16:45:05;;;;;;;16.50;15.60;;;15.00;1.00;;;;;;2612425;54;20262;-69
2023/04/19 16:50:53;;;;;;;15.77;15.07;;;15.80;1.00;;;;;;2613664;54;20399;-69
2023/04/19 16:56:41;;;;;;;17.43;16.43;;;15.60;1.00;;;;;;2612174;54;21079;-69
2023/04/19 17:02:28;;;;;;;16.60;15.80;;;15.30;1.00;;;;;;2611922;54;20134;-70
2023/04/19 17:08:16;;;;;;;15.93;15.13;;;13.80;1.00;;;;;;2611709;54;20150;-69
2023/04/19 17:14:04;;;;;;;16.97;16.00;;;13.30;1.00;;;;;;2606810;54;20122;-69
2023/04/19 17:19:53;;;;;;;16.57;15.67;;;13.30;1.00;;;;;;2608946;54;20157;-69
2023/04/19 17:25:41;;;;;;;16.80;15.90;;;13.40;1.00;;;;;;2611495;54;20480;-70
2023/04/19 17:28:44;;;;;;;16.93;15.67;;;13.30;1.00;;;;;;2612852;54;20427;-69
2023/04/19 17:31:10;;;;;;;17.27;16.27;;;13.20;1.00;;;;;;2613171;54;20446;-70
2023/04/19 17:36:59;;;;;;;16.33;15.43;;;13.20;1.00;;;;;;2610702;54;21014;-69
2023/04/19 17:49:30;;;;;;;18.30;17.10;;;13.00;1.00;;;;;;2611971;39;20796;-69
2023/04/19 17:55:18;;;;;;;17.80;16.67;;;12.80;1.00;;;;;;2612785;54;20693;-70
2023/04/19 18:01:07;;;;;;;19.50;18.20;;;12.60;1.00;;;;;;2612949;54;20126;-70
2023/04/19 18:06:55;;;;;;;18.63;17.43;;;12.50;1.00;;;;;;2613401;54;20387;-69
2023/04/19 18:12:43;;;;;;;17.00;16.10;;;12.30;1.00;;;;;;2612926;54;20281;-70
2023/04/19 18:18:31;;;;;;;17.17;16.27;;;12.10;1.00;;;;;;2613050;54;20145;-70
2023/04/19 18:24:18;;;;;;;18.73;17.73;;;12.10;1.00;;;;;;2614186;54;20127;-70
2023/04/19 18:30:07;;;;;;;17.63;16.70;;;11.90;1.00;;;;;;2613838;54;20127;-71
2023/04/19 18:35:55;;;;;;;18.10;17.00;;;11.80;1.00;;;;;;2613461;54;20834;-70
2023/04/19 18:41:42;;;;;;;18.87;17.70;;;11.70;1.00;;;;;;2610907;54;20134;-70
2023/04/19 18:47:30;;;;;;;18.37;17.17;;;11.40;1.00;;;;;;2611618;54;21109;-71
2023/04/19 18:53:18;;;;;;;18.90;17.53;;;11.30;1.00;;;;;;2612829;54;20137;-71
2023/04/19 18:59:06;;;;;;;18.93;17.87;;;11.10;1.00;;;;;;2612044;54;20182;-70
2023/04/19 19:04:54;;;;;;;19.13;18.07;;;11.20;1.00;;;;;;2612772;54;20677;-70
2023/04/19 19:10:42;;;;;;;17.33;16.40;;;10.80;1.00;;;;;;2614011;54;20130;-70
2023/04/19 19:16:30;;;;;;;18.40;17.03;;;10.70;1.00;;;;;;2613513;54;20677;-70
2023/04/19 19:22:18;;;;;;;18.80;17.40;;;10.70;1.00;;;;;;2614189;54;20431;-70
2023/04/19 19:28:06;;;;;;;19.47;17.60;;;10.60;1.00;;;;;;2613165;54;20375;-71
2023/04/19 19:33:54;;;;;;;19.53;18.13;;;10.50;1.00;;;;;;2613806;54;20126;-70
2023/04/19 19:39:43;;;;;;;18.43;17.33;;;10.30;1.00;;;;;;2613535;54;20145;-70
2023/04/19 19:42:38;;;;;;;20.20;19.00;;;10.30;1.00;;;;;;2612321;54;20404;-70
2023/04/19 19:45:06;;;;;;;19.20;17.90;;;10.20;1.00;;;;;;2611004;46;20419;-71
2023/04/19 19:50:54;;;;;;;19.03;17.93;;;10.10;1.00;;;;;;2609713;54;20463;-71
2023/04/19 19:56:41;;;;;;;18.43;17.43;;;10.10;1.00;;;;;;2612434;54;20151;-71
2023/04/19 20:02:29;;;;;;;19.33;17.73;;;10.00;1.00;;;;;;2611447;54;20270;-69
2023/04/19 20:08:17;;;;;;;17.70;16.70;;;10.10;1.00;;;;;;2610505;54;20915;-69
2023/04/19 20:14:05;;;;;;;18.60;17.50;;;9.90;1.00;;;;;;2611858;54;20163;-71
2023/04/19 20:19:53;;;;;;;18.90;17.57;;;9.80;1.00;;;;;;2610775;54;20162;-71
2023/04/19 20:25:40;;;;;;;19.07;17.97;;;9.80;1.00;;;;;;2612954;54;21187;-70
2023/04/19 20:31:28;;;;;;;18.40;17.30;;;9.80;1.00;;;;;;2612154;54;20125;-70
2023/04/19 20:37:16;;;;;;;18.90;17.60;;;9.50;1.00;;;;;;2612330;54;20163;-70
2023/04/19 20:47:11;;;;;;;18.73;17.53;;;9.60;1.00;;;;;;2614008;54;20395;-70
2023/04/19 20:52:59;;;;;;;19.00;17.70;;;9.50;1.00;;;;;;2613377;54;21424;-70
2023/04/19 20:58:47;;;;;;;17.83;16.53;;;9.20;1.00;;;;;;2612338;54;20382;-70
2023/04/19 21:04:35;;;;;;;19.47;18.07;;;9.10;1.00;;;;;;2613305;54;20162;-70
2023/04/19 21:10:22;;;;;;;18.60;17.50;;;9.10;1.00;;;;;;2614190;54;20659;-71
2023/04/19 21:16:10;;;;;;;18.77;17.70;;;9.20;1.00;;;;;;2610760;39;20509;-71
2023/04/19 21:21:58;;;;;;;20.27;18.67;;;9.10;1.00;;;;;;2611198;54;20138;-71
2023/04/19 21:27:45;;;;;;;19.40;18.10;;;8.90;1.00;;;;;;2613350;54;20391;-70
2023/04/19 21:33:33;;;;;;;19.10;17.70;;;8.80;1.00;;;;;;2613713;54;20114;-70
2023/04/19 21:39:21;;;;;;;18.57;17.37;;;8.80;1.00;;;;;;2613094;54;20178;-71
2023/04/19 21:42:38;;;;;;;19.67;18.37;;;8.70;1.00;;;;;;2611777;47;20424;-70
2023/04/19 21:45:04;;;;;;;18.93;17.87;;;8.80;1.00;;;;;;2612541;54;20134;-70
2023/04/19 21:50:52;;;;;;;18.87;17.73;;;8.70;1.00;;;;;;2611516;54;20526;-70
2023/04/19 21:56:40;;;;;;;18.80;17.80;;;8.60;1.00;;;;;;2612390;54;20126;-70
2023/04/19 22:02:27;;;;;;;19.77;18.40;;;8.60;1.00;;;;;;2610062;54;20198;-70
2023/04/19 22:08:16;;;;;;;18.57;17.57;;;8.50;1.00;;;;;;2613138;54;20122;-70
2023/04/19 22:14:05;;;;;;;18.90;17.43;;;8.60;1.00;;;;;;2611597;54;20387;-71
2023/04/19 22:19:53;;;;;;;18.70;17.70;;;8.50;1.00;;;;;;2611430;54;20451;-70
2023/04/19 22:25:40;;;;;;;19.37;18.20;;;8.50;1.00;;;;;;2613572;54;20399;-70
2023/04/19 22:31:28;;;;;;;19.33;17.97;;;8.50;1.00;;;;;;2612924;54;20114;-69
2023/04/19 22:37:16;;;;;;;18.23;17.43;;;8.50;1.00;;;;;;2612547;54;20195;-70
2023/04/19 22:47:10;;;;;;;18.40;17.20;;;8.40;1.00;;;;;;2612658;46;20385;-70
2023/04/19 22:52:58;;;;;;;19.10;17.57;;;8.40;1.00;;;;;;2612516;54;20399;-70
2023/04/19 22:58:46;;;;;;;17.47;16.50;;;8.20;1.00;;;;;;2611423;54;20142;-69
2023/04/19 23:04:34;;;;;;;18.50;17.50;;;8.30;1.00;;;;;;2613452;54;20142;-70
2023/04/19 23:10:22;;;;;;;18.80;17.70;;;8.20;1.00;;;;;;2612366;54;20147;-70
2023/04/19 23:16:10;;;;;;;20.17;18.67;;;8.00;1.00;;;;;;2611817;54;20511;-70
2023/04/19 23:21:58;;;;;;;18.77;17.77;;;7.90;1.00;;;;;;2613160;54;21007;-71
2023/04/19 23:27:46;;;;;;;18.87;17.87;;;8.10;1.00;;;;;;2613643;39;20549;-69
2023/04/19 23:33:33;;;;;;;18.63;17.40;;;7.90;1.00;;;;;;2613302;54;20131;-70
2023/04/19 23:39:21;;;;;;;18.77;17.53;;;8.10;1.00;;;;;;2613774;39;20548;-70
2023/04/19 23:42:38;;;;;;;18.43;17.20;;;8.10;1.00;;;;;;2612015;46;20408;-70
2023/04/19 23:45:05;;;;;;;18.90;17.90;;;8.10;1.00;;;;;;2613001;54;20165;-69
2023/04/19 23:50:53;;;;;;;19.70;18.47;;;8.00;1.00;;;;;;2612035;54;20367;-69
2023/04/19 23:56:41;;;;;;;19.77;18.47;;;7.80;1.00;;;;;;2612527;54;20636;-69
